Time;durP1;ratioP1;P1;durP2;ratioP2;P2;SDS_P1;SDS_P2;PMS_P1;PMS_P2;Temp;Humidity;BMP_temperature;BMP_pressure;BME280_temperature;BME280_humidity;BME280_pressure;Samples;Min_cycle;Max_cycle;Signal;HPM_P1;HPM_P2
2022/10/27 00:02:11;;;;;;;;;0.00;0.00;;;;;;;;5047025;28;61770;-82
2022/10/27 00:04:36;;;;;;;;;3.00;3.00;;;;;;;;5065118;28;61779;-83
2022/10/27 00:07:02;;;;;;;;;1.25;1.25;;;;;;;;5055558;28;62024;-83
2022/10/27 00:09:27;;;;;;;;;1.00;0.75;;;;;;;;5047075;28;61854;-82
2022/10/27 00:11:53;;;;;;;;;1.00;1.00;;;;;;;;5064899;28;61716;-82
2022/10/27 00:14:19;;;;;;;;;1.75;0.25;;;;;;;;5046968;28;61822;-82
2022/10/27 00:16:50;;;;;;;;;3.67;1.00;;;;;;;;5045820;28;63805;-81
2022/10/27 00:19:16;;;;;;;;;2.50;1.00;;;;;;;;5064368;28;62030;-82
2022/10/27 00:21:41;;;;;;;;;1.67;1.33;;;;;;;;5065021;28;61813;-82
2022/10/27 00:24:06;;;;;;;;;4.00;2.00;;;;;;;;5046589;28;61768;-81
2022/10/27 00:26:31;;;;;;;;;2.00;1.00;;;;;;;;5064144;28;61749;-82
2022/10/27 00:28:57;;;;;;;;;4.00;3.00;;;;;;;;5064805;28;62007;-81
2022/10/27 00:31:22;;;;;;;;;5.00;2.00;;;;;;;;5064622;28;62127;-81
2022/10/27 00:33:48;;;;;;;;;1.00;1.00;;;;;;;;5064741;28;61662;-81
2022/10/27 00:36:18;;;;;;;;;2.00;1.00;;;;;;;;5063729;28;62304;-82
2022/10/27 00:38:44;;;;;;;;;1.00;1.00;;;;;;;;5064322;28;61924;-82
2022/10/27 00:41:30;;;;;;;;;4.00;1.00;;;;;;;;5064305;28;61688;-82
2022/10/27 00:43:56;;;;;;;;;1.00;1.00;;;;;;;;5064725;28;61856;-82
2022/10/27 00:46:27;;;;;;;;;1.00;1.00;;;;;;;;5045076;28;63719;-81
2022/10/27 00:48:55;;;;;;;;;1.75;1.75;;;;;;;;5063871;28;61955;-82
2022/10/27 00:51:21;;;;;;;;;1.00;1.00;;;;;;;;5046008;28;61872;-82
2022/10/27 00:53:48;;;;;;;;;1.00;1.00;;;;;;;;5046190;28;61968;-82
2022/10/27 00:56:13;;;;;;;;;1.00;1.00;;;;;;;;5063387;28;61724;-82
2022/10/27 00:58:39;;;;;;;;;0.50;0.50;;;;;;;;5064114;28;61885;-82
2022/10/27 01:01:05;;;;;;;;;0.75;0.75;;;;;;;;5063987;28;61776;-82
2022/10/27 01:03:31;;;;;;;;;1.00;1.00;;;;;;;;5045813;28;62256;-81
2022/10/27 01:05:57;;;;;;;;;1.00;1.00;;;;;;;;5060108;28;61769;-82
2022/10/27 01:08:23;;;;;;;;;0.50;0.50;;;;;;;;5043667;28;61774;-82
2022/10/27 01:10:48;;;;;;;;;2.25;1.00;;;;;;;;5025869;28;61893;-82
2022/10/27 01:13:14;;;;;;;;;2.00;2.00;;;;;;;;5025892;28;61938;-82
2022/10/27 01:15:39;;;;;;;;;1.75;1.00;;;;;;;;5024844;28;63682;-81
2022/10/27 01:18:22;;;;;;;;;3.00;1.50;;;;;;;;5043661;28;61767;-82
2022/10/27 01:20:48;;;;;;;;;1.00;1.00;;;;;;;;5043814;28;61894;-82
2022/10/27 01:23:20;;;;;;;;;3.75;2.00;;;;;;;;5025656;28;61987;-82
2022/10/27 01:26:03;;;;;;;;;3.50;1.00;;;;;;;;5024952;28;63891;-82
2022/10/27 01:29:01;;;;;;;;;2.50;1.00;;;;;;;;5043294;28;61996;-82
2022/10/27 01:31:31;;;;;;;;;1.00;1.00;;;;;;;;4998640;28;61765;-82
2022/10/27 01:34:02;;;;;;;;;1.00;1.00;;;;;;;;5043428;28;62428;-82
2022/10/27 01:36:33;;;;;;;;;0.50;0.00;;;;;;;;5042631;28;61809;-82
2022/10/27 01:38:59;;;;;;;;;1.00;1.00;;;;;;;;5025133;28;61763;-82
2022/10/27 01:41:27;;;;;;;;;1.00;1.00;;;;;;;;5043242;28;61902;-82
2022/10/27 01:43:56;;;;;;;;;1.50;1.50;;;;;;;;5025500;28;61990;-82
2022/10/27 01:46:21;;;;;;;;;1.00;1.00;;;;;;;;5042533;28;62127;-82
2022/10/27 01:48:47;;;;;;;;;0.75;0.75;;;;;;;;5024734;28;61896;-82
2022/10/27 01:51:13;;;;;;;;;0.75;0.75;;;;;;;;5043313;28;61976;-82
2022/10/27 01:53:40;;;;;;;;;1.00;1.00;;;;;;;;5043257;28;62110;-82
2022/10/27 01:56:11;;;;;;;;;1.00;1.00;;;;;;;;5042467;28;61821;-82
2022/10/27 01:58:46;;;;;;;;;1.25;0.50;;;;;;;;5042533;28;62071;-82
2022/10/27 02:01:28;;;;;;;;;2.00;2.00;;;;;;;;5025216;28;61881;-82
2022/10/27 02:04:13;;;;;;;;;1.00;1.00;;;;;;;;5042954;28;61743;-82
2022/10/27 02:06:38;;;;;;;;;4.50;1.50;;;;;;;;5041875;28;61795;-82
2022/10/27 02:09:10;;;;;;;;;2.50;1.00;;;;;;;;5044859;28;62178;-82
2022/10/27 02:11:38;;;;;;;;;3.50;1.50;;;;;;;;5044802;28;61841;-82
2022/10/27 02:14:04;;;;;;;;;2.00;1.00;;;;;;;;5063023;28;61794;-82
2022/10/27 02:16:31;;;;;;;;;1.00;1.00;;;;;;;;5044039;28;63534;-82
2022/10/27 02:18:59;;;;;;;;;3.00;2.00;;;;;;;;5062466;28;61872;-82
2022/10/27 02:21:25;;;;;;;;;1.00;1.00;;;;;;;;5044804;28;61707;-82
2022/10/27 02:23:51;;;;;;;;;0.25;0.25;;;;;;;;5044794;28;61905;-82
2022/10/27 02:26:17;;;;;;;;;2.25;1.00;;;;;;;;5062273;28;61800;-82
2022/10/27 02:28:45;;;;;;;;;2.00;1.00;;;;;;;;5062613;28;61733;-83
2022/10/27 02:31:11;;;;;;;;;1.50;1.50;;;;;;;;5063119;28;62253;-82
2022/10/27 02:33:37;;;;;;;;;0.75;0.75;;;;;;;;5062647;28;61841;-82
2022/10/27 02:36:02;;;;;;;;;1.00;1.00;;;;;;;;5062140;28;61750;-82
2022/10/27 02:38:27;;;;;;;;;2.75;1.00;;;;;;;;5062521;28;61826;-82
2022/10/27 02:40:52;;;;;;;;;0.50;0.00;;;;;;;;5062901;28;61911;-82
2022/10/27 02:43:18;;;;;;;;;2.00;2.00;;;;;;;;5062546;28;61744;-82
2022/10/27 02:45:43;;;;;;;;;2.00;2.00;;;;;;;;5062095;28;62946;-82
2022/10/27 02:48:08;;;;;;;;;3.00;1.00;;;;;;;;5044301;28;61798;-82
2022/10/27 02:50:33;;;;;;;;;1.00;1.00;;;;;;;;5062220;28;61913;-82
2022/10/27 02:52:59;;;;;;;;;1.00;1.00;;;;;;;;5062738;28;61903;-82
2022/10/27 02:55:24;;;;;;;;;2.25;1.00;;;;;;;;5061973;28;61837;-82
2022/10/27 02:57:49;;;;;;;;;0.00;0.00;;;;;;;;5043906;28;61764;-82
2022/10/27 03:00:15;;;;;;;;;3.25;2.50;;;;;;;;5062508;28;61960;-82
2022/10/27 03:02:40;;;;;;;;;2.00;2.00;;;;;;;;5062404;28;62628;-81
2022/10/27 03:05:05;;;;;;;;;2.75;1.75;;;;;;;;5061828;28;61955;-82
2022/10/27 03:07:31;;;;;;;;;3.00;1.00;;;;;;;;5043834;28;61971;-82
2022/10/27 03:09:56;;;;;;;;;2.00;1.00;;;;;;;;5062535;28;62305;-82
2022/10/27 03:12:21;;;;;;;;;1.00;1.00;;;;;;;;5044145;28;61827;-82
2022/10/27 03:14:47;;;;;;;;;2.50;2.00;;;;;;;;5043321;28;63642;-81
2022/10/27 03:17:12;;;;;;;;;1.00;1.00;;;;;;;;5062378;28;62020;-82
2022/10/27 03:19:37;;;;;;;;;2.00;2.00;;;;;;;;5064535;28;61954;-82
2022/10/27 03:22:02;;;;;;;;;3.75;1.00;;;;;;;;5066037;28;61815;-82
2022/10/27 03:24:28;;;;;;;;;1.00;1.00;;;;;;;;5064926;28;61809;-81
2022/10/27 03:26:53;;;;;;;;;1.50;1.00;;;;;;;;5047350;28;62115;-82
2022/10/27 03:29:18;;;;;;;;;4.50;2.00;;;;;;;;5047556;28;62149;-82
2022/10/27 03:31:43;;;;;;;;;5.00;2.00;;;;;;;;5047500;28;62136;-82
2022/10/27 03:34:09;;;;;;;;;2.25;1.25;;;;;;;;5046590;28;63693;-82
2022/10/27 03:36:34;;;;;;;;;1.50;0.50;;;;;;;;5065556;28;61869;-82
2022/10/27 03:38:59;;;;;;;;;2.75;2.00;;;;;;;;5065605;28;61785;-82
2022/10/27 03:41:25;;;;;;;;;3.00;1.75;;;;;;;;5047397;28;62019;-82
2022/10/27 03:43:50;;;;;;;;;1.50;1.00;;;;;;;;5064461;28;62683;-82
2022/10/27 03:46:15;;;;;;;;;3.00;2.00;;;;;;;;5047210;28;61824;-82
2022/10/27 03:48:40;;;;;;;;;1.00;1.00;;;;;;;;5064989;28;61767;-82
2022/10/27 03:51:06;;;;;;;;;3.50;2.00;;;;;;;;5065363;28;61795;-81
2022/10/27 03:53:31;;;;;;;;;1.75;1.00;;;;;;;;5064728;28;62758;-82
2022/10/27 03:55:56;;;;;;;;;1.00;1.00;;;;;;;;5064661;28;61675;-82
2022/10/27 03:58:21;;;;;;;;;1.00;1.00;;;;;;;;5047022;28;61931;-83
2022/10/27 04:00:47;;;;;;;;;2.25;2.25;;;;;;;;5065331;28;62017;-81
2022/10/27 04:03:12;;;;;;;;;1.25;1.00;;;;;;;;5046467;28;63853;-82
2022/10/27 04:05:38;;;;;;;;;1.00;1.00;;;;;;;;5064034;28;61747;-82
2022/10/27 04:08:03;;;;;;;;;0.75;0.75;;;;;;;;5057548;28;61792;-82
2022/10/27 04:10:28;;;;;;;;;3.00;2.00;;;;;;;;5065140;28;61746;-82
2022/10/27 04:12:55;;;;;;;;;1.75;1.75;;;;;;;;5064132;28;61636;-82
2022/10/27 04:15:21;;;;;;;;;1.50;0.50;;;;;;;;5065092;28;61763;-82
2022/10/27 04:17:46;;;;;;;;;1.25;1.25;;;;;;;;5046605;28;61805;-82
2022/10/27 04:20:12;;;;;;;;;3.00;1.00;;;;;;;;5046509;28;62163;-82
2022/10/27 04:22:37;;;;;;;;;2.00;1.50;;;;;;;;5064194;28;62811;-82
2022/10/27 04:25:03;;;;;;;;;2.00;1.00;;;;;;;;5046305;28;61841;-82
2022/10/27 04:27:28;;;;;;;;;2.50;2.50;;;;;;;;5064970;28;61821;-82
2022/10/27 04:29:53;;;;;;;;;1.00;1.00;;;;;;;;5046153;28;61822;-82
2022/10/27 04:32:19;;;;;;;;;3.00;1.25;;;;;;;;5046121;28;64825;-82
2022/10/27 04:34:44;;;;;;;;;1.00;1.00;;;;;;;;5064755;28;61895;-82
2022/10/27 04:37:09;;;;;;;;;3.00;1.00;;;;;;;;5064512;28;61833;-82
2022/10/27 04:39:34;;;;;;;;;1.00;1.00;;;;;;;;5046167;28;62083;-82
2022/10/27 04:42:00;;;;;;;;;1.00;1.00;;;;;;;;5063881;28;61780;-81
2022/10/27 04:44:25;;;;;;;;;1.25;1.25;;;;;;;;5046352;28;61853;-82
2022/10/27 04:46:50;;;;;;;;;2.50;1.25;;;;;;;;5046285;28;61967;-82
2022/10/27 04:49:15;;;;;;;;;1.25;1.25;;;;;;;;5063929;28;61813;-82
2022/10/27 04:51:41;;;;;;;;;0.75;0.75;;;;;;;;5045524;28;64452;-82
2022/10/27 04:54:06;;;;;;;;;2.00;2.00;;;;;;;;5064109;28;61782;-83
2022/10/27 04:56:31;;;;;;;;;2.00;1.50;;;;;;;;5025830;28;61912;-82
2022/10/27 04:58:56;;;;;;;;;1.50;0.50;;;;;;;;5022557;28;61866;-81
2022/10/27 05:01:22;;;;;;;;;1.00;1.00;;;;;;;;5023698;28;62955;-82
2022/10/27 05:03:48;;;;;;;;;2.50;1.00;;;;;;;;5023949;28;61732;-82
2022/10/27 05:06:13;;;;;;;;;2.00;1.00;;;;;;;;5017036;28;61986;-82
2022/10/27 05:08:38;;;;;;;;;2.25;2.00;;;;;;;;5021176;28;61762;-82
2022/10/27 05:11:04;;;;;;;;;3.00;2.00;;;;;;;;5021839;28;64102;-82
2022/10/27 05:13:29;;;;;;;;;3.00;2.00;;;;;;;;5024016;28;61926;-82
2022/10/27 05:16:01;;;;;;;;;3.00;2.00;;;;;;;;5023904;28;61877;-82
2022/10/27 05:18:27;;;;;;;;;1.50;1.50;;;;;;;;5023935;28;61681;-82
2022/10/27 05:20:52;;;;;;;;;2.25;2.00;;;;;;;;5021551;28;63957;-81
2022/10/27 05:23:17;;;;;;;;;2.00;2.00;;;;;;;;5022182;28;61794;-82
2022/10/27 05:25:42;;;;;;;;;3.50;2.50;;;;;;;;5023817;28;61717;-82
2022/10/27 05:28:10;;;;;;;;;6.25;3.00;;;;;;;;5023819;28;62100;-82
2022/10/27 05:30:35;;;;;;;;;2.75;2.75;;;;;;;;5021814;28;63722;-82
2022/10/27 05:33:00;;;;;;;;;5.25;1.50;;;;;;;;5023283;28;61751;-82
2022/10/27 05:35:26;;;;;;;;;2.25;1.25;;;;;;;;5023415;28;61930;-82
2022/10/27 05:37:51;;;;;;;;;3.50;1.75;;;;;;;;5023728;28;62051;-82
2022/10/27 05:40:16;;;;;;;;;1.25;0.00;;;;;;;;5022602;28;62804;-82
2022/10/27 05:42:52;;;;;;;;;5.00;2.50;;;;;;;;5022988;28;61832;-82
2022/10/27 05:45:17;;;;;;;;;2.50;2.00;;;;;;;;5023345;28;61854;-82
2022/10/27 05:47:42;;;;;;;;;5.00;3.00;;;;;;;;5023456;28;61902;-82
2022/10/27 05:50:08;;;;;;;;;2.25;2.00;;;;;;;;5021158;28;63577;-82
2022/10/27 05:52:33;;;;;;;;;2.50;1.25;;;;;;;;5023189;28;61911;-82
2022/10/27 05:54:58;;;;;;;;;4.00;3.00;;;;;;;;5031274;28;61882;-82
2022/10/27 05:57:24;;;;;;;;;3.00;2.00;;;;;;;;5045398;28;61750;-82
2022/10/27 05:59:49;;;;;;;;;2.75;2.75;;;;;;;;5062900;28;61798;-82
2022/10/27 06:02:14;;;;;;;;;2.75;2.75;;;;;;;;5063168;28;61813;-82
2022/10/27 06:04:40;;;;;;;;;3.00;3.00;;;;;;;;5044993;28;61928;-82
2022/10/27 06:07:05;;;;;;;;;3.00;2.00;;;;;;;;5032049;28;61893;-82
2022/10/27 06:09:30;;;;;;;;;3.25;2.00;;;;;;;;5042548;28;62371;-82
2022/10/27 06:11:56;;;;;;;;;3.25;3.00;;;;;;;;5043217;28;61746;-82
2022/10/27 06:14:21;;;;;;;;;2.00;2.00;;;;;;;;5042917;28;61812;-82
2022/10/27 06:16:46;;;;;;;;;4.00;2.50;;;;;;;;5043114;28;61702;-82
2022/10/27 06:19:11;;;;;;;;;3.25;2.00;;;;;;;;5023450;28;65179;-82
2022/10/27 06:21:37;;;;;;;;;3.25;2.00;;;;;;;;5042706;28;61819;-82
2022/10/27 06:24:02;;;;;;;;;4.00;3.00;;;;;;;;5024971;28;62274;-82
2022/10/27 06:26:27;;;;;;;;;3.50;3.00;;;;;;;;5042844;28;62101;-82
2022/10/27 06:28:52;;;;;;;;;2.00;2.00;;;;;;;;5024255;28;63609;-82
2022/10/27 06:31:18;;;;;;;;;1.25;1.25;;;;;;;;5042439;28;61711;-82
2022/10/27 06:33:43;;;;;;;;;1.25;1.25;;;;;;;;5042779;28;61770;-81
2022/10/27 06:36:08;;;;;;;;;3.50;2.50;;;;;;;;5024303;28;61785;-83
2022/10/27 06:38:33;;;;;;;;;2.00;2.00;;;;;;;;5041811;28;62020;-83
2022/10/27 06:40:59;;;;;;;;;3.25;3.00;;;;;;;;5024510;28;61919;-83
2022/10/27 06:43:24;;;;;;;;;3.00;3.00;;;;;;;;5042614;28;61688;-82
2022/10/27 06:45:49;;;;;;;;;3.50;2.50;;;;;;;;5042606;28;62028;-82
2022/10/27 06:48:14;;;;;;;;;2.00;2.00;;;;;;;;5023466;28;63642;-80
2022/10/27 06:50:40;;;;;;;;;4.00;3.00;;;;;;;;5042368;28;61931;-83
2022/10/27 06:53:05;;;;;;;;;5.50;4.00;;;;;;;;5042518;28;61862;-82
2022/10/27 06:55:31;;;;;;;;;2.50;2.50;;;;;;;;5042329;28;62064;-83
2022/10/27 06:57:56;;;;;;;;;2.00;2.00;;;;;;;;5041616;28;61933;-83
2022/10/27 07:00:22;;;;;;;;;3.50;2.00;;;;;;;;5023958;28;63015;-83
2022/10/27 07:02:47;;;;;;;;;4.25;3.00;;;;;;;;5024189;28;62187;-83
2022/10/27 07:05:13;;;;;;;;;3.00;1.00;;;;;;;;5024392;28;62308;-83
2022/10/27 07:07:38;;;;;;;;;3.00;2.00;;;;;;;;5041584;28;62733;-83
2022/10/27 07:10:04;;;;;;;;;7.50;3.00;;;;;;;;5041996;28;61821;-82
2022/10/27 07:12:30;;;;;;;;;2.00;2.00;;;;;;;;5041952;28;61739;-83
2022/10/27 07:14:55;;;;;;;;;3.50;2.75;;;;;;;;5042296;28;61781;-83
2022/10/27 07:17:20;;;;;;;;;1.75;1.75;;;;;;;;5041086;28;62019;-83
2022/10/27 07:19:46;;;;;;;;;2.00;2.00;;;;;;;;5023424;28;62079;-82
2022/10/27 07:22:11;;;;;;;;;7.00;3.00;;;;;;;;5042141;28;61848;-83
2022/10/27 07:24:36;;;;;;;;;3.25;2.25;;;;;;;;5042068;28;61799;-83
2022/10/27 07:27:01;;;;;;;;;3.50;2.00;;;;;;;;5023189;28;64558;-82
2022/10/27 07:29:27;;;;;;;;;3.00;3.00;;;;;;;;5023705;28;61833;-83
2022/10/27 07:31:52;;;;;;;;;3.00;3.00;;;;;;;;5023934;28;62025;-82
2022/10/27 07:34:17;;;;;;;;;3.00;3.00;;;;;;;;5023846;28;61874;-83
2022/10/27 07:36:43;;;;;;;;;5.50;3.00;;;;;;;;5041075;28;61894;-83
2022/10/27 07:39:08;;;;;;;;;2.25;2.25;;;;;;;;5041829;28;61751;-83
2022/10/27 07:41:33;;;;;;;;;3.00;3.00;;;;;;;;5041808;28;61962;-83
2022/10/27 07:43:58;;;;;;;;;3.00;3.00;;;;;;;;5041975;28;61918;-83
2022/10/27 07:46:24;;;;;;;;;4.00;1.75;;;;;;;;5022778;28;64749;-83
2022/10/27 07:48:49;;;;;;;;;2.75;1.50;;;;;;;;5041721;28;61857;-83
2022/10/27 07:51:14;;;;;;;;;3.00;2.00;;;;;;;;5023597;28;62172;-83
2022/10/27 07:53:39;;;;;;;;;4.50;2.75;;;;;;;;5041727;28;61792;-83
2022/10/27 07:56:05;;;;;;;;;2.75;2.00;;;;;;;;5040933;28;63153;-83
2022/10/27 07:58:30;;;;;;;;;2.75;2.00;;;;;;;;5041381;28;61774;-83
2022/10/27 08:00:56;;;;;;;;;3.00;3.00;;;;;;;;5023425;28;61799;-82
2022/10/27 08:03:24;;;;;;;;;4.75;2.00;;;;;;;;5023525;28;61862;-82
2022/10/27 08:05:50;;;;;;;;;7.00;2.25;;;;;;;;5043252;28;62613;-82
2022/10/27 08:08:16;;;;;;;;;4.25;4.25;;;;;;;;5058497;28;61845;-83
2022/10/27 08:10:42;;;;;;;;;3.50;2.00;;;;;;;;5046531;28;61737;-82
2022/10/27 08:13:08;;;;;;;;;4.50;2.25;;;;;;;;5046823;28;61735;-82
2022/10/27 08:15:34;;;;;;;;;3.75;2.75;;;;;;;;5063942;28;61959;-82
2022/10/27 08:18:01;;;;;;;;;3.75;2.75;;;;;;;;5064929;28;62034;-82
2022/10/27 08:20:30;;;;;;;;;2.75;2.75;;;;;;;;5064638;28;61829;-82
2022/10/27 08:23:03;;;;;;;;;4.00;2.50;;;;;;;;5046734;28;62373;-81
2022/10/27 08:25:29;;;;;;;;;4.25;2.00;;;;;;;;5045849;28;64185;-82
2022/10/27 08:27:55;;;;;;;;;4.00;4.00;;;;;;;;5064578;28;61786;-82
2022/10/27 08:30:20;;;;;;;;;6.75;3.00;;;;;;;;5046460;28;62230;-82
2022/10/27 08:32:46;;;;;;;;;5.50;3.00;;;;;;;;5064811;28;61821;-82
2022/10/27 08:35:11;;;;;;;;;1.00;1.00;;;;;;;;5063966;28;61735;-82
2022/10/27 08:37:37;;;;;;;;;3.50;3.50;;;;;;;;5064156;28;61889;-82
2022/10/27 08:40:02;;;;;;;;;3.50;2.75;;;;;;;;5064608;28;61795;-82
2022/10/27 08:42:35;;;;;;;;;3.75;3.75;;;;;;;;5064676;28;61746;-82
2022/10/27 08:45:05;;;;;;;;;3.75;2.00;;;;;;;;5045568;28;63928;-82
2022/10/27 08:47:31;;;;;;;;;3.00;3.00;;;;;;;;5064702;28;61659;-82
2022/10/27 08:50:01;;;;;;;;;4.25;2.00;;;;;;;;5063869;28;61897;-82
2022/10/27 08:52:26;;;;;;;;;11.25;3.50;;;;;;;;5064522;28;61726;-82
2022/10/27 08:54:53;;;;;;;;;4.00;4.00;;;;;;;;5063337;28;62617;-82
2022/10/27 08:57:22;;;;;;;;;4.50;3.75;;;;;;;;5064501;28;61948;-82
2022/10/27 08:59:50;;;;;;;;;3.75;3.25;;;;;;;;5063752;28;61729;-82
2022/10/27 09:02:38;;;;;;;;;4.00;3.33;;;;;;;;5064210;28;61885;-82
2022/10/27 09:05:13;;;;;;;;;5.33;4.00;;;;;;;;5045103;28;63827;-82
2022/10/27 09:07:43;;;;;;;;;5.50;3.00;;;;;;;;5055567;28;61790;-82
2022/10/27 09:10:19;;;;;;;;;4.25;3.00;;;;;;;;5064162;28;61767;-82
2022/10/27 09:13:03;;;;;;;;;4.25;4.25;;;;;;;;5045919;28;61684;-82
2022/10/27 09:15:36;;;;;;;;;3.75;3.00;;;;;;;;5044058;28;63588;-82
2022/10/27 09:18:04;;;;;;;;;4.00;4.00;;;;;;;;5063527;28;62023;-82
2022/10/27 09:20:51;;;;;;;;;5.75;2.75;;;;;;;;5045348;28;61896;-82
2022/10/27 09:23:17;;;;;;;;;7.00;5.75;;;;;;;;5045787;28;61908;-82
2022/10/27 09:25:44;;;;;;;;;5.00;4.00;;;;;;;;5044738;28;63706;-82
2022/10/27 09:28:23;;;;;;;;;7.50;4.00;;;;;;;;5045253;28;61793;-82
2022/10/27 09:30:49;;;;;;;;;4.67;3.67;;;;;;;;5045587;28;61769;-82
2022/10/27 09:33:17;;;;;;;;;3.50;2.25;;;;;;;;5045741;28;61737;-82
2022/10/27 09:35:43;;;;;;;;;4.75;3.00;;;;;;;;5044686;28;64371;-82
2022/10/27 09:38:13;;;;;;;;;3.50;2.25;;;;;;;;5063507;28;61759;-82
2022/10/27 09:40:38;;;;;;;;;8.50;4.75;;;;;;;;5063536;28;61984;-82
2022/10/27 09:43:03;;;;;;;;;17.75;13.75;;;;;;;;5063264;28;62044;-82
2022/10/27 09:45:28;;;;;;;;;8.50;6.00;;;;;;;;5063162;28;61828;-82
2022/10/27 09:47:58;;;;;;;;;4.50;3.75;;;;;;;;5063238;28;61776;-82
2022/10/27 09:50:27;;;;;;;;;6.00;4.00;;;;;;;;5062923;28;62024;-82
2022/10/27 09:52:52;;;;;;;;;4.33;3.67;;;;;;;;5063569;28;61786;-82
2022/10/27 09:55:18;;;;;;;;;4.50;4.50;;;;;;;;5034357;28;63540;-82
2022/10/27 09:57:45;;;;;;;;;4.00;3.00;;;;;;;;5021648;28;61812;-82
2022/10/27 10:00:20;;;;;;;;;2.67;2.67;;;;;;;;5023093;28;61959;-82
2022/10/27 10:03:05;;;;;;;;;5.00;3.67;;;;;;;;5023456;28;61989;-82
2022/10/27 10:05:31;;;;;;;;;6.67;3.33;;;;;;;;5022434;28;61830;-82
2022/10/27 10:08:11;;;;;;;;;4.67;3.00;;;;;;;;5014259;28;61676;-82
2022/10/27 10:10:36;;;;;;;;;4.33;3.33;;;;;;;;5021600;28;61773;-82
2022/10/27 10:13:09;;;;;;;;;3.67;3.67;;;;;;;;5022799;28;62006;-82
2022/10/27 10:15:54;;;;;;;;;3.00;3.00;;;;;;;;5021217;28;64986;-83
2022/10/27 10:18:20;;;;;;;;;6.67;5.00;;;;;;;;5020905;28;61770;-82
2022/10/27 10:20:45;;;;;;;;;6.00;3.00;;;;;;;;5021387;28;61910;-82
2022/10/27 10:23:21;;;;;;;;;5.67;5.67;;;;;;;;5022877;28;61754;-82
2022/10/27 10:25:48;;;;;;;;;4.00;4.00;;;;;;;;5021952;28;61923;-81
2022/10/27 10:28:25;;;;;;;;;3.33;3.33;;;;;;;;5022299;28;61757;-82
2022/10/27 10:30:51;;;;;;;;;4.00;4.00;;;;;;;;5021576;28;62329;-82
2022/10/27 10:33:18;;;;;;;;;6.25;5.25;;;;;;;;5021304;28;62259;-82
2022/10/27 10:35:47;;;;;;;;;6.75;5.00;;;;;;;;5020557;28;64808;-82
2022/10/27 10:38:22;;;;;;;;;4.33;4.00;;;;;;;;5022419;28;61784;-82
2022/10/27 10:40:56;;;;;;;;;7.00;4.00;;;;;;;;5022197;28;61794;-82
2022/10/27 10:43:21;;;;;;;;;7.33;6.00;;;;;;;;5022709;28;61901;-82
2022/10/27 10:45:51;;;;;;;;;5.67;5.67;;;;;;;;5021864;28;61890;-82
2022/10/27 10:48:19;;;;;;;;;4.67;3.67;;;;;;;;5022357;28;61892;-81
2022/10/27 10:50:46;;;;;;;;;4.00;3.00;;;;;;;;5022355;28;62909;-82
2022/10/27 10:53:25;;;;;;;;;6.00;6.00;;;;;;;;5022324;28;61670;-83
2022/10/27 10:55:52;;;;;;;;;3.00;3.00;;;;;;;;5020048;28;64244;-82
2022/10/27 10:58:19;;;;;;;;;3.33;3.33;;;;;;;;5022337;28;61744;-82
2022/10/27 11:00:58;;;;;;;;;13.50;6.75;;;;;;;;5022427;28;61706;-82
2022/10/27 11:03:24;;;;;;;;;9.33;7.67;;;;;;;;5022285;28;62158;-82
2022/10/27 11:05:58;;;;;;;;;7.67;5.00;;;;;;;;5017919;28;63846;-82
2022/10/27 11:08:28;;;;;;;;;6.00;6.00;;;;;;;;5017031;28;61764;-82
2022/10/27 11:10:54;;;;;;;;;10.67;8.00;;;;;;;;5022058;28;61798;-82
2022/10/27 11:13:26;;;;;;;;;6.00;4.67;;;;;;;;5020811;28;62242;-82
2022/10/27 11:15:53;;;;;;;;;8.67;6.67;;;;;;;;5021661;28;61868;-82
2022/10/27 11:18:24;;;;;;;;;7.00;5.67;;;;;;;;5021789;28;61972;-81
2022/10/27 11:20:53;;;;;;;;;6.67;4.67;;;;;;;;5021980;28;61820;-82
2022/10/27 11:23:31;;;;;;;;;5.67;4.00;;;;;;;;5020909;28;61918;-82
2022/10/27 11:25:57;;;;;;;;;5.67;3.33;;;;;;;;5021037;28;61853;-82
2022/10/27 11:28:41;;;;;;;;;4.00;3.00;;;;;;;;5020428;28;61930;-82
2022/10/27 11:31:16;;;;;;;;;5.00;3.67;;;;;;;;5020616;28;61733;-82
2022/10/27 11:33:49;;;;;;;;;4.33;3.33;;;;;;;;5022271;28;61892;-82
2022/10/27 11:36:17;;;;;;;;;3.00;3.00;;;;;;;;5019794;28;64159;-83
2022/10/27 11:38:53;;;;;;;;;8.33;5.33;;;;;;;;5021635;28;61791;-82
2022/10/27 11:41:37;;;;;;;;;4.00;3.67;;;;;;;;5025376;28;61844;-82
2022/10/27 11:44:08;;;;;;;;;13.33;6.00;;;;;;;;5024627;28;61796;-82
2022/10/27 11:46:44;;;;;;;;;4.67;3.00;;;;;;;;5024581;28;61879;-82
2022/10/27 11:49:13;;;;;;;;;5.00;4.00;;;;;;;;5024878;28;61760;-82
2022/10/27 11:51:44;;;;;;;;;5.33;5.00;;;;;;;;5025221;28;61835;-82
2022/10/27 11:54:09;;;;;;;;;5.67;4.67;;;;;;;;5023766;28;61718;-82
2022/10/27 11:57:13;;;;;;;;;3.00;3.00;;;;;;;;5023063;28;63747;-83
2022/10/27 11:59:54;;;;;;;;;6.33;5.00;;;;;;;;5002531;28;62086;-82
2022/10/27 12:02:41;;;;;;;;;8.00;3.67;;;;;;;;5002698;28;61903;-82
2022/10/27 12:05:19;;;;;;;;;6.00;3.67;;;;;;;;5002983;28;61762;-82
2022/10/27 12:07:57;;;;;;;;;6.33;4.67;;;;;;;;4993286;28;62117;-82
2022/10/27 12:10:28;;;;;;;;;3.67;3.67;;;;;;;;5002393;28;62641;-82
2022/10/27 12:12:59;;;;;;;;;5.67;3.67;;;;;;;;4986083;28;61823;-83
2022/10/27 12:15:39;;;;;;;;;2.33;2.33;;;;;;;;5002738;28;62285;-83
2022/10/27 12:18:23;;;;;;;;;4.00;3.00;;;;;;;;5001949;28;61900;-82
2022/10/27 12:20:55;;;;;;;;;0.00;0.00;;;;;;;;4985802;28;61825;-81
2022/10/27 12:23:23;;;;;;;;;5.00;4.33;;;;;;;;5002280;28;61986;-82
2022/10/27 12:25:53;;;;;;;;;7.67;4.33;;;;;;;;5002723;28;61845;-82
2022/10/27 12:28:20;;;;;;;;;4.00;4.00;;;;;;;;5001670;28;62819;-82
2022/10/27 12:30:46;;;;;;;;;7.67;4.00;;;;;;;;5016566;28;62290;-82
2022/10/27 12:33:11;;;;;;;;;6.00;5.00;;;;;;;;5024620;28;61878;-82
2022/10/27 12:35:46;;;;;;;;;4.00;4.00;;;;;;;;5024716;28;61860;-83
2022/10/27 12:38:31;;;;;;;;;5.33;2.67;;;;;;;;5024110;28;61839;-82
2022/10/27 12:41:08;;;;;;;;;2.67;2.67;;;;;;;;5023027;28;62002;-82
2022/10/27 12:43:43;;;;;;;;;8.67;4.00;;;;;;;;5023085;28;61816;-82
2022/10/27 12:46:23;;;;;;;;;3.33;2.00;;;;;;;;5023282;28;61813;-82
2022/10/27 12:48:56;;;;;;;;;3.00;3.00;;;;;;;;5023535;28;63163;-82
2022/10/27 12:51:28;;;;;;;;;5.33;3.00;;;;;;;;5023474;28;61768;-82
2022/10/27 12:53:57;;;;;;;;;4.33;3.00;;;;;;;;5024338;28;61951;-82
2022/10/27 12:56:22;;;;;;;;;4.00;3.00;;;;;;;;5022691;28;61957;-82
2022/10/27 12:58:54;;;;;;;;;4.00;2.67;;;;;;;;5023537;28;62016;-83
2022/10/27 13:01:22;;;;;;;;;4.00;4.00;;;;;;;;5024207;28;61801;-82
2022/10/27 13:04:20;;;;;;;;;5.00;3.00;;;;;;;;5022634;28;62001;-82
2022/10/27 13:06:54;;;;;;;;;4.33;1.67;;;;;;;;4992795;28;62065;-82
2022/10/27 13:09:29;;;;;;;;;5.33;3.00;;;;;;;;5001150;28;62840;-81
2022/10/27 13:12:07;;;;;;;;;2.33;2.00;;;;;;;;5001853;28;62082;-82
2022/10/27 13:14:51;;;;;;;;;3.33;2.33;;;;;;;;4984925;28;62083;-82
2022/10/27 13:17:28;;;;;;;;;3.00;3.00;;;;;;;;5001777;28;61997;-82
2022/10/27 13:20:02;;;;;;;;;4.00;4.00;;;;;;;;4984673;28;62748;-82
2022/10/27 13:22:32;;;;;;;;;5.00;3.67;;;;;;;;5001535;28;62210;-82
2022/10/27 13:25:09;;;;;;;;;2.33;1.67;;;;;;;;5001653;28;62280;-82
2022/10/27 13:27:41;;;;;;;;;4.67;4.00;;;;;;;;4985038;28;61967;-82
2022/10/27 13:30:23;;;;;;;;;2.67;2.67;;;;;;;;4984326;28;63751;-82
2022/10/27 13:32:48;;;;;;;;;4.67;3.00;;;;;;;;5001377;28;61768;-82
2022/10/27 13:35:13;;;;;;;;;7.33;3.67;;;;;;;;5001002;28;62208;-82
2022/10/27 13:37:39;;;;;;;;;4.33;1.67;;;;;;;;5001573;28;62078;-82
2022/10/27 13:40:16;;;;;;;;;5.33;3.00;;;;;;;;4984210;28;63745;-82
2022/10/27 13:42:41;;;;;;;;;4.00;2.00;;;;;;;;5014789;28;61854;-82
2022/10/27 13:45:27;;;;;;;;;3.00;3.00;;;;;;;;5023636;28;61863;-82
2022/10/27 13:48:10;;;;;;;;;4.33;2.67;;;;;;;;5019508;28;61688;-82
2022/10/27 13:50:36;;;;;;;;;3.67;3.33;;;;;;;;5020829;28;63961;-83
2022/10/27 13:53:13;;;;;;;;;3.00;2.00;;;;;;;;5021987;28;62196;-82
2022/10/27 13:55:39;;;;;;;;;3.33;2.67;;;;;;;;5021815;28;61861;-82
2022/10/27 13:58:04;;;;;;;;;2.00;2.00;;;;;;;;5023618;28;61952;-82
2022/10/27 14:00:42;;;;;;;;;9.67;4.00;;;;;;;;5021183;28;64044;-82
2022/10/27 14:03:10;;;;;;;;;5.00;3.00;;;;;;;;5022529;28;61837;-82
2022/10/27 14:05:38;;;;;;;;;5.00;3.33;;;;;;;;5022569;28;61785;-81
2022/10/27 14:08:04;;;;;;;;;6.67;3.33;;;;;;;;5015648;28;61784;-83
2022/10/27 14:10:29;;;;;;;;;4.00;4.00;;;;;;;;5021205;28;63925;-83
2022/10/27 14:12:56;;;;;;;;;5.33;3.00;;;;;;;;5023145;28;61791;-82
2022/10/27 14:15:26;;;;;;;;;3.00;3.00;;;;;;;;5021775;28;61957;-82
2022/10/27 14:17:52;;;;;;;;;7.33;4.00;;;;;;;;5021392;28;62320;-82
2022/10/27 14:20:28;;;;;;;;;3.00;3.00;;;;;;;;5020485;28;62983;-82
2022/10/27 14:22:58;;;;;;;;;3.67;1.33;;;;;;;;5022902;28;61936;-82
2022/10/27 14:25:28;;;;;;;;;3.67;3.00;;;;;;;;5022939;28;61677;-82
2022/10/27 14:28:02;;;;;;;;;4.00;3.00;;;;;;;;5022872;28;62089;-82
2022/10/27 14:30:29;;;;;;;;;7.00;3.67;;;;;;;;5022324;28;61839;-82
2022/10/27 14:32:54;;;;;;;;;3.00;3.00;;;;;;;;5022528;28;61977;-82
2022/10/27 14:35:21;;;;;;;;;7.00;3.33;;;;;;;;5022812;28;61899;-82
2022/10/27 14:37:47;;;;;;;;;6.67;3.67;;;;;;;;5022880;28;61634;-82
2022/10/27 14:40:15;;;;;;;;;2.33;2.33;;;;;;;;5021965;28;61919;-82
2022/10/27 14:42:41;;;;;;;;;4.00;2.67;;;;;;;;5021251;28;61783;-82
2022/10/27 14:45:15;;;;;;;;;7.00;3.00;;;;;;;;5022637;28;61689;-82
2022/10/27 14:47:43;;;;;;;;;3.67;3.00;;;;;;;;5022666;28;62618;-82
2022/10/27 14:50:14;;;;;;;;;3.67;3.67;;;;;;;;5021751;28;61874;-82
2022/10/27 14:52:41;;;;;;;;;3.00;3.00;;;;;;;;5022419;28;61725;-82